sensor_id;sensor_type;location;lat;lon;timestamp;temperature;humidity
7564;DHT22;3823;53.586;10.040;2022-07-25T00:00:07;23.40;16.30
7564;DHT22;3823;53.586;10.040;2022-07-25T00:02:34;23.40;16.00
7564;DHT22;3823;53.586;10.040;2022-07-25T00:05:00;23.20;16.00
7564;DHT22;3823;53.586;10.040;2022-07-25T00:07:26;23.20;16.10
7564;DHT22;3823;53.586;10.040;2022-07-25T00:09:52;23.20;15.90
7564;DHT22;3823;53.586;10.040;2022-07-25T00:12:18;23.20;15.80
7564;DHT22;3823;53.586;10.040;2022-07-25T00:14:43;23.20;16.00
7564;DHT22;3823;53.586;10.040;2022-07-25T00:17:09;23.10;15.90
7564;DHT22;3823;53.586;10.040;2022-07-25T00:19:35;23.10;16.10
7564;DHT22;3823;53.586;10.040;2022-07-25T00:22:01;23.10;16.00
7564;DHT22;3823;53.586;10.040;2022-07-25T00:24:26;23.10;16.00
7564;DHT22;3823;53.586;10.040;2022-07-25T00:26:52;23.00;15.90
7564;DHT22;3823;53.586;10.040;2022-07-25T00:29:18;23.00;16.00
7564;DHT22;3823;53.586;10.040;2022-07-25T00:31:43;22.90;16.00
7564;DHT22;3823;53.586;10.040;2022-07-25T00:34:09;22.90;16.10
7564;DHT22;3823;53.586;10.040;2022-07-25T00:36:35;22.80;16.40
7564;DHT22;3823;53.586;10.040;2022-07-25T00:39:01;22.80;16.40
7564;DHT22;3823;53.586;10.040;2022-07-25T00:41:27;22.80;16.40
7564;DHT22;3823;53.586;10.040;2022-07-25T00:43:52;22.80;16.50
7564;DHT22;3823;53.586;10.040;2022-07-25T00:46:18;22.70;16.50
7564;DHT22;3823;53.586;10.040;2022-07-25T00:48:43;22.70;16.70
7564;DHT22;3823;53.586;10.040;2022-07-25T00:51:10;22.70;16.70
7564;DHT22;3823;53.586;10.040;2022-07-25T00:53:36;22.60;16.70
7564;DHT22;3823;53.586;10.040;2022-07-25T00:56:04;22.60;16.70
7564;DHT22;3823;53.586;10.040;2022-07-25T00:58:30;22.70;16.70
7564;DHT22;3823;53.586;10.040;2022-07-25T01:00:57;22.60;16.60
7564;DHT22;3823;53.586;10.040;2022-07-25T01:03:23;22.60;16.70
7564;DHT22;3823;53.586;10.040;2022-07-25T01:05:49;22.50;17.10
7564;DHT22;3823;53.586;10.040;2022-07-25T01:08:17;22.50;17.70
7564;DHT22;3823;53.586;10.040;2022-07-25T01:10:44;22.40;17.20
7564;DHT22;3823;53.586;10.040;2022-07-25T01:13:10;22.40;17.20
7564;DHT22;3823;53.586;10.040;2022-07-25T01:15:35;22.40;17.20
7564;DHT22;3823;53.586;10.040;2022-07-25T01:18:01;22.30;17.00
7564;DHT22;3823;53.586;10.040;2022-07-25T01:20:28;22.30;17.10
7564;DHT22;3823;53.586;10.040;2022-07-25T01:22:54;22.40;17.20
7564;DHT22;3823;53.586;10.040;2022-07-25T01:25:21;22.40;17.20
7564;DHT22;3823;53.586;10.040;2022-07-25T01:27:47;22.40;17.00
7564;DHT22;3823;53.586;10.040;2022-07-25T01:30:15;22.30;17.10
7564;DHT22;3823;53.586;10.040;2022-07-25T01:32:42;22.30;17.30
7564;DHT22;3823;53.586;10.040;2022-07-25T01:35:08;22.40;17.20
7564;DHT22;3823;53.586;10.040;2022-07-25T01:37:34;22.30;17.20
7564;DHT22;3823;53.586;10.040;2022-07-25T01:40:00;22.20;17.40
7564;DHT22;3823;53.586;10.040;2022-07-25T01:42:26;22.20;17.40
7564;DHT22;3823;53.586;10.040;2022-07-25T01:44:52;22.20;17.00
7564;DHT22;3823;53.586;10.040;2022-07-25T01:47:18;22.20;17.20
7564;DHT22;3823;53.586;10.040;2022-07-25T01:49:44;22.20;16.80
7564;DHT22;3823;53.586;10.040;2022-07-25T01:52:10;22.20;16.80
7564;DHT22;3823;53.586;10.040;2022-07-25T01:54:36;22.20;16.50
7564;DHT22;3823;53.586;10.040;2022-07-25T01:57:04;22.20;16.70
7564;DHT22;3823;53.586;10.040;2022-07-25T01:59:30;22.10;16.90
7564;DHT22;3823;53.586;10.040;2022-07-25T02:01:55;22.10;17.00
7564;DHT22;3823;53.586;10.040;2022-07-25T02:04:21;22.00;16.80
7564;DHT22;3823;53.586;10.040;2022-07-25T02:06:47;22.00;16.80
7564;DHT22;3823;53.586;10.040;2022-07-25T02:09:15;21.90;16.80
7564;DHT22;3823;53.586;10.040;2022-07-25T02:11:40;21.80;16.80
7564;DHT22;3823;53.586;10.040;2022-07-25T02:14:06;21.80;17.10
7564;DHT22;3823;53.586;10.040;2022-07-25T02:16:32;21.60;17.00
7564;DHT22;3823;53.586;10.040;2022-07-25T02:18:57;21.70;17.20
7564;DHT22;3823;53.586;10.040;2022-07-25T02:21:23;21.60;16.90
7564;DHT22;3823;53.586;10.040;2022-07-25T02:23:50;21.70;16.60
7564;DHT22;3823;53.586;10.040;2022-07-25T02:26:16;21.60;16.80
7564;DHT22;3823;53.586;10.040;2022-07-25T02:28:41;21.60;16.70
7564;DHT22;3823;53.586;10.040;2022-07-25T02:31:08;21.60;16.50
7564;DHT22;3823;53.586;10.040;2022-07-25T02:33:33;21.60;16.20
7564;DHT22;3823;53.586;10.040;2022-07-25T02:36:00;21.60;15.80
7564;DHT22;3823;53.586;10.040;2022-07-25T02:38:25;21.60;15.70
7564;DHT22;3823;53.586;10.040;2022-07-25T02:40:52;21.50;15.50
7564;DHT22;3823;53.586;10.040;2022-07-25T02:43:18;21.60;15.20
7564;DHT22;3823;53.586;10.040;2022-07-25T02:45:44;21.60;15.20
7564;DHT22;3823;53.586;10.040;2022-07-25T02:48:10;21.50;15.10
7564;DHT22;3823;53.586;10.040;2022-07-25T02:50:36;21.60;14.90
7564;DHT22;3823;53.586;10.040;2022-07-25T02:53:02;21.60;14.60
7564;DHT22;3823;53.586;10.040;2022-07-25T02:55:29;21.70;14.30
7564;DHT22;3823;53.586;10.040;2022-07-25T02:57:55;21.70;14.10
7564;DHT22;3823;53.586;10.040;2022-07-25T03:00:20;21.70;14.20
7564;DHT22;3823;53.586;10.040;2022-07-25T03:02:47;21.50;14.30
7564;DHT22;3823;53.586;10.040;2022-07-25T03:05:14;21.50;14.20
7564;DHT22;3823;53.586;10.040;2022-07-25T03:07:41;21.50;14.10
7564;DHT22;3823;53.586;10.040;2022-07-25T03:10:08;21.60;13.80
7564;DHT22;3823;53.586;10.040;2022-07-25T03:12:35;21.50;13.70
7564;DHT22;3823;53.586;10.040;2022-07-25T03:15:02;21.50;14.00
7564;DHT22;3823;53.586;10.040;2022-07-25T03:17:28;21.50;13.50
7564;DHT22;3823;53.586;10.040;2022-07-25T03:19:55;21.50;13.50
7564;DHT22;3823;53.586;10.040;2022-07-25T03:22:21;21.50;13.50
7564;DHT22;3823;53.586;10.040;2022-07-25T03:24:47;21.50;13.50
7564;DHT22;3823;53.586;10.040;2022-07-25T03:27:12;21.50;13.50
7564;DHT22;3823;53.586;10.040;2022-07-25T03:29:39;21.40;13.60
7564;DHT22;3823;53.586;10.040;2022-07-25T03:32:06;21.50;13.40
7564;DHT22;3823;53.586;10.040;2022-07-25T03:34:31;21.40;13.20
7564;DHT22;3823;53.586;10.040;2022-07-25T03:36:58;21.30;13.30
7564;DHT22;3823;53.586;10.040;2022-07-25T03:39:24;21.30;13.40
7564;DHT22;3823;53.586;10.040;2022-07-25T03:41:50;21.30;13.30
7564;DHT22;3823;53.586;10.040;2022-07-25T03:44:20;21.30;13.20
7564;DHT22;3823;53.586;10.040;2022-07-25T03:46:46;21.30;13.20
7564;DHT22;3823;53.586;10.040;2022-07-25T03:49:11;21.40;12.80
7564;DHT22;3823;53.586;10.040;2022-07-25T03:51:37;21.40;13.00
7564;DHT22;3823;53.586;10.040;2022-07-25T03:54:03;21.40;12.90
7564;DHT22;3823;53.586;10.040;2022-07-25T03:59:05;21.40;12.80
7564;DHT22;3823;53.586;10.040;2022-07-25T04:01:32;21.30;12.90
7564;DHT22;3823;53.586;10.040;2022-07-25T04:03:58;21.20;13.10
7564;DHT22;3823;53.586;10.040;2022-07-25T04:06:24;21.20;13.00
7564;DHT22;3823;53.586;10.040;2022-07-25T04:08:50;21.30;12.80
7564;DHT22;3823;53.586;10.040;2022-07-25T04:11:15;21.30;12.80
7564;DHT22;3823;53.586;10.040;2022-07-25T04:13:41;21.30;12.70
7564;DHT22;3823;53.586;10.040;2022-07-25T04:16:07;21.20;12.70
7564;DHT22;3823;53.586;10.040;2022-07-25T04:18:33;21.20;13.00
7564;DHT22;3823;53.586;10.040;2022-07-25T04:20:59;21.30;12.80
7564;DHT22;3823;53.586;10.040;2022-07-25T04:23:25;21.40;12.80
7564;DHT22;3823;53.586;10.040;2022-07-25T04:25:50;21.30;12.70
7564;DHT22;3823;53.586;10.040;2022-07-25T04:28:16;21.40;12.80
7564;DHT22;3823;53.586;10.040;2022-07-25T04:30:42;21.40;12.60
7564;DHT22;3823;53.586;10.040;2022-07-25T04:33:10;21.50;12.60
7564;DHT22;3823;53.586;10.040;2022-07-25T04:35:36;21.40;12.60
7564;DHT22;3823;53.586;10.040;2022-07-25T04:38:02;21.40;12.70
7564;DHT22;3823;53.586;10.040;2022-07-25T04:40:27;21.40;12.90
7564;DHT22;3823;53.586;10.040;2022-07-25T04:42:53;21.40;12.90
7564;DHT22;3823;53.586;10.040;2022-07-25T04:45:19;21.40;13.00
7564;DHT22;3823;53.586;10.040;2022-07-25T04:47:44;21.50;12.70
7564;DHT22;3823;53.586;10.040;2022-07-25T04:50:10;21.60;12.10
7564;DHT22;3823;53.586;10.040;2022-07-25T04:52:36;21.60;12.30
7564;DHT22;3823;53.586;10.040;2022-07-25T04:55:02;21.70;12.00
7564;DHT22;3823;53.586;10.040;2022-07-25T04:57:28;21.70;12.30
7564;DHT22;3823;53.586;10.040;2022-07-25T04:59:54;21.70;12.00
7564;DHT22;3823;53.586;10.040;2022-07-25T05:02:20;21.80;11.90
7564;DHT22;3823;53.586;10.040;2022-07-25T05:04:46;21.80;11.80
7564;DHT22;3823;53.586;10.040;2022-07-25T05:07:11;21.90;11.70
7564;DHT22;3823;53.586;10.040;2022-07-25T05:09:37;21.80;11.50
7564;DHT22;3823;53.586;10.040;2022-07-25T05:12:03;21.80;12.00
7564;DHT22;3823;53.586;10.040;2022-07-25T05:14:28;21.90;12.10
7564;DHT22;3823;53.586;10.040;2022-07-25T05:16:54;21.90;11.50
7564;DHT22;3823;53.586;10.040;2022-07-25T05:19:19;21.90;11.60
7564;DHT22;3823;53.586;10.040;2022-07-25T05:21:45;21.90;11.60
7564;DHT22;3823;53.586;10.040;2022-07-25T05:24:11;21.90;11.70
7564;DHT22;3823;53.586;10.040;2022-07-25T05:26:36;21.90;11.50
7564;DHT22;3823;53.586;10.040;2022-07-25T05:29:02;21.90;12.30
7564;DHT22;3823;53.586;10.040;2022-07-25T05:31:28;21.90;11.60
7564;DHT22;3823;53.586;10.040;2022-07-25T05:33:53;22.00;11.40
7564;DHT22;3823;53.586;10.040;2022-07-25T05:36:19;22.10;11.40
7564;DHT22;3823;53.586;10.040;2022-07-25T05:38:44;22.20;11.50
7564;DHT22;3823;53.586;10.040;2022-07-25T05:41:10;22.20;11.20
7564;DHT22;3823;53.586;10.040;2022-07-25T05:43:35;22.30;11.30
7564;DHT22;3823;53.586;10.040;2022-07-25T05:46:03;22.40;10.90
7564;DHT22;3823;53.586;10.040;2022-07-25T05:48:29;22.50;10.70
7564;DHT22;3823;53.586;10.040;2022-07-25T05:50:55;22.50;10.40
7564;DHT22;3823;53.586;10.040;2022-07-25T05:53:21;22.70;10.60
7564;DHT22;3823;53.586;10.040;2022-07-25T05:55:47;22.80;10.30
7564;DHT22;3823;53.586;10.040;2022-07-25T05:58:13;22.80;10.30
7564;DHT22;3823;53.586;10.040;2022-07-25T06:00:39;22.90;10.70
7564;DHT22;3823;53.586;10.040;2022-07-25T06:03:04;22.90;10.20
7564;DHT22;3823;53.586;10.040;2022-07-25T06:05:30;23.00;10.10
7564;DHT22;3823;53.586;10.040;2022-07-25T06:07:56;23.00;10.10
7564;DHT22;3823;53.586;10.040;2022-07-25T06:10:22;23.00;10.00
7564;DHT22;3823;53.586;10.040;2022-07-25T06:12:48;23.10;10.40
7564;DHT22;3823;53.586;10.040;2022-07-25T06:15:13;23.10;10.10
7564;DHT22;3823;53.586;10.040;2022-07-25T06:17:39;23.20;10.10
7564;DHT22;3823;53.586;10.040;2022-07-25T06:20:05;23.30;10.00
7564;DHT22;3823;53.586;10.040;2022-07-25T06:22:31;23.40;9.40
7564;DHT22;3823;53.586;10.040;2022-07-25T06:24:56;23.50;9.60
7564;DHT22;3823;53.586;10.040;2022-07-25T06:27:22;23.50;9.60
7564;DHT22;3823;53.586;10.040;2022-07-25T06:29:47;23.50;10.00
7564;DHT22;3823;53.586;10.040;2022-07-25T06:32:13;23.50;9.70
7564;DHT22;3823;53.586;10.040;2022-07-25T06:34:39;23.60;9.40
7564;DHT22;3823;53.586;10.040;2022-07-25T06:37:04;23.70;9.30
7564;DHT22;3823;53.586;10.040;2022-07-25T06:39:30;23.80;8.80
7564;DHT22;3823;53.586;10.040;2022-07-25T06:41:56;23.90;9.10
7564;DHT22;3823;53.586;10.040;2022-07-25T06:44:24;24.00;9.20
7564;DHT22;3823;53.586;10.040;2022-07-25T06:46:49;24.10;8.60
7564;DHT22;3823;53.586;10.040;2022-07-25T06:49:15;24.20;8.20
7564;DHT22;3823;53.586;10.040;2022-07-25T06:51:42;24.40;8.10
7564;DHT22;3823;53.586;10.040;2022-07-25T06:54:07;24.60;7.30
7564;DHT22;3823;53.586;10.040;2022-07-25T06:56:33;24.60;7.50
7564;DHT22;3823;53.586;10.040;2022-07-25T06:58:59;24.70;7.50
7564;DHT22;3823;53.586;10.040;2022-07-25T07:01:25;24.70;7.70
7564;DHT22;3823;53.586;10.040;2022-07-25T07:03:50;24.80;7.60
7564;DHT22;3823;53.586;10.040;2022-07-25T07:06:16;24.90;7.40
7564;DHT22;3823;53.586;10.040;2022-07-25T07:08:42;24.90;7.30
7564;DHT22;3823;53.586;10.040;2022-07-25T07:11:07;25.00;7.50
7564;DHT22;3823;53.586;10.040;2022-07-25T07:13:33;25.00;7.50
7564;DHT22;3823;53.586;10.040;2022-07-25T07:15:59;25.10;7.50
7564;DHT22;3823;53.586;10.040;2022-07-25T07:18:25;25.20;7.50
7564;DHT22;3823;53.586;10.040;2022-07-25T07:20:51;25.50;7.20
7564;DHT22;3823;53.586;10.040;2022-07-25T07:23:16;25.60;6.40
7564;DHT22;3823;53.586;10.040;2022-07-25T07:25:43;25.70;6.10
7564;DHT22;3823;53.586;10.040;2022-07-25T07:28:10;25.70;6.40
7564;DHT22;3823;53.586;10.040;2022-07-25T07:30:36;25.70;6.40
7564;DHT22;3823;53.586;10.040;2022-07-25T07:33:02;25.80;6.60
7564;DHT22;3823;53.586;10.040;2022-07-25T07:35:27;26.00;6.70
7564;DHT22;3823;53.586;10.040;2022-07-25T07:37:53;26.20;6.30
7564;DHT22;3823;53.586;10.040;2022-07-25T07:40:20;26.40;5.80
7564;DHT22;3823;53.586;10.040;2022-07-25T07:42:47;26.30;5.50
7564;DHT22;3823;53.586;10.040;2022-07-25T07:45:15;26.40;5.50
7564;DHT22;3823;53.586;10.040;2022-07-25T07:47:41;26.40;5.40
7564;DHT22;3823;53.586;10.040;2022-07-25T07:50:08;26.50;5.50
7564;DHT22;3823;53.586;10.040;2022-07-25T07:52:35;26.70;5.60
7564;DHT22;3823;53.586;10.040;2022-07-25T07:55:01;26.90;5.20
7564;DHT22;3823;53.586;10.040;2022-07-25T07:57:45;27.00;4.70
7564;DHT22;3823;53.586;10.040;2022-07-25T08:00:11;27.00;5.10
7564;DHT22;3823;53.586;10.040;2022-07-25T08:02:49;27.10;4.70
7564;DHT22;3823;53.586;10.040;2022-07-25T08:05:32;27.20;4.60
7564;DHT22;3823;53.586;10.040;2022-07-25T08:07:58;27.30;4.30
7564;DHT22;3823;53.586;10.040;2022-07-25T08:10:26;27.40;4.60
7564;DHT22;3823;53.586;10.040;2022-07-25T08:12:52;27.60;3.90
7564;DHT22;3823;53.586;10.040;2022-07-25T08:15:19;27.80;2.90
7564;DHT22;3823;53.586;10.040;2022-07-25T08:17:46;27.70;3.20
7564;DHT22;3823;53.586;10.040;2022-07-25T08:20:12;27.90;3.50
7564;DHT22;3823;53.586;10.040;2022-07-25T08:22:40;28.00;3.10
7564;DHT22;3823;53.586;10.040;2022-07-25T08:25:08;27.90;2.50
7564;DHT22;3823;53.586;10.040;2022-07-25T08:27:35;27.80;2.80
7564;DHT22;3823;53.586;10.040;2022-07-25T08:30:03;27.90;2.70
7564;DHT22;3823;53.586;10.040;2022-07-25T08:32:29;28.00;2.70
7564;DHT22;3823;53.586;10.040;2022-07-25T08:34:55;28.20;2.60
7564;DHT22;3823;53.586;10.040;2022-07-25T08:37:21;28.50;2.00
7564;DHT22;3823;53.586;10.040;2022-07-25T08:39:48;28.70;2.10
7564;DHT22;3823;53.586;10.040;2022-07-25T08:42:14;28.90;1.60
7564;DHT22;3823;53.586;10.040;2022-07-25T08:44:42;28.90;1.20
7564;DHT22;3823;53.586;10.040;2022-07-25T08:47:08;28.90;1.00
7564;DHT22;3823;53.586;10.040;2022-07-25T08:49:35;29.10;1.00
7564;DHT22;3823;53.586;10.040;2022-07-25T08:52:02;29.10;1.00
7564;DHT22;3823;53.586;10.040;2022-07-25T08:54:30;29.20;1.00
7564;DHT22;3823;53.586;10.040;2022-07-25T08:56:55;29.30;1.00
7564;DHT22;3823;53.586;10.040;2022-07-25T08:59:21;29.40;1.00
7564;DHT22;3823;53.586;10.040;2022-07-25T09:01:47;29.60;1.00
7564;DHT22;3823;53.586;10.040;2022-07-25T09:04:13;29.60;1.00
7564;DHT22;3823;53.586;10.040;2022-07-25T09:06:51;29.70;1.00
7564;DHT22;3823;53.586;10.040;2022-07-25T09:09:17;30.00;1.00
7564;DHT22;3823;53.586;10.040;2022-07-25T09:11:42;30.20;1.00
7564;DHT22;3823;53.586;10.040;2022-07-25T09:14:11;30.40;1.00
7564;DHT22;3823;53.586;10.040;2022-07-25T09:16:42;30.60;1.00
7564;DHT22;3823;53.586;10.040;2022-07-25T09:19:15;30.70;1.00
7564;DHT22;3823;53.586;10.040;2022-07-25T09:21:43;30.90;1.00
7564;DHT22;3823;53.586;10.040;2022-07-25T09:24:16;30.80;1.00
7564;DHT22;3823;53.586;10.040;2022-07-25T09:26:51;30.90;1.00
7564;DHT22;3823;53.586;10.040;2022-07-25T09:29:29;30.80;1.00
7564;DHT22;3823;53.586;10.040;2022-07-25T09:31:56;31.00;1.00
7564;DHT22;3823;53.586;10.040;2022-07-25T09:34:48;31.20;1.00
7564;DHT22;3823;53.586;10.040;2022-07-25T09:37:24;31.40;1.00
7564;DHT22;3823;53.586;10.040;2022-07-25T09:39:51;31.40;1.00
7564;DHT22;3823;53.586;10.040;2022-07-25T09:44:42;31.70;1.00
7564;DHT22;3823;53.586;10.040;2022-07-25T09:47:12;31.60;1.00
7564;DHT22;3823;53.586;10.040;2022-07-25T09:49:43;31.50;1.00
7564;DHT22;3823;53.586;10.040;2022-07-25T09:52:10;31.60;1.00
7564;DHT22;3823;53.586;10.040;2022-07-25T09:54:39;31.60;1.00
7564;DHT22;3823;53.586;10.040;2022-07-25T09:57:05;31.40;1.00
7564;DHT22;3823;53.586;10.040;2022-07-25T09:59:35;31.50;1.00
7564;DHT22;3823;53.586;10.040;2022-07-25T10:02:38;31.50;1.00
7564;DHT22;3823;53.586;10.040;2022-07-25T10:07:42;31.60;1.00
7564;DHT22;3823;53.586;10.040;2022-07-25T10:10:31;31.60;1.00
7564;DHT22;3823;53.586;10.040;2022-07-25T10:13:12;31.50;1.00
7564;DHT22;3823;53.586;10.040;2022-07-25T10:15:40;31.40;1.00
7564;DHT22;3823;53.586;10.040;2022-07-25T10:18:06;31.40;1.00
7564;DHT22;3823;53.586;10.040;2022-07-25T10:20:33;31.50;1.00
7564;DHT22;3823;53.586;10.040;2022-07-25T10:22:59;31.70;1.00
7564;DHT22;3823;53.586;10.040;2022-07-25T10:25:25;31.70;1.00
7564;DHT22;3823;53.586;10.040;2022-07-25T10:27:58;31.80;1.00
7564;DHT22;3823;53.586;10.040;2022-07-25T10:30:39;31.80;1.00
7564;DHT22;3823;53.586;10.040;2022-07-25T10:33:16;31.60;1.00
7564;DHT22;3823;53.586;10.040;2022-07-25T10:35:43;31.60;1.00
7564;DHT22;3823;53.586;10.040;2022-07-25T10:38:09;31.60;1.00
7564;DHT22;3823;53.586;10.040;2022-07-25T10:40:42;31.60;1.00
7564;DHT22;3823;53.586;10.040;2022-07-25T10:43:18;31.80;1.00
7564;DHT22;3823;53.586;10.040;2022-07-25T10:45:58;31.80;1.00
7564;DHT22;3823;53.586;10.040;2022-07-25T10:48:30;31.60;1.00
7564;DHT22;3823;53.586;10.040;2022-07-25T10:51:00;31.50;1.00
7564;DHT22;3823;53.586;10.040;2022-07-25T10:53:37;31.50;1.00
7564;DHT22;3823;53.586;10.040;2022-07-25T10:56:14;31.50;1.00
7564;DHT22;3823;53.586;10.040;2022-07-25T10:58:44;31.50;1.00
7564;DHT22;3823;53.586;10.040;2022-07-25T11:01:10;31.60;1.00
7564;DHT22;3823;53.586;10.040;2022-07-25T11:03:35;31.70;1.00
7564;DHT22;3823;53.586;10.040;2022-07-25T11:06:01;31.80;1.00
7564;DHT22;3823;53.586;10.040;2022-07-25T11:08:33;31.60;1.00
7564;DHT22;3823;53.586;10.040;2022-07-25T11:11:00;31.50;1.00
7564;DHT22;3823;53.586;10.040;2022-07-25T11:13:26;31.30;1.00
7564;DHT22;3823;53.586;10.040;2022-07-25T11:15:56;31.10;1.00
7564;DHT22;3823;53.586;10.040;2022-07-25T11:18:39;31.10;1.00
7564;DHT22;3823;53.586;10.040;2022-07-25T11:21:06;31.00;1.00
7564;DHT22;3823;53.586;10.040;2022-07-25T11:23:35;31.00;1.00
7564;DHT22;3823;53.586;10.040;2022-07-25T11:26:10;31.00;1.00
7564;DHT22;3823;53.586;10.040;2022-07-25T11:28:40;31.00;1.00
7564;DHT22;3823;53.586;10.040;2022-07-25T11:31:06;30.90;1.00
7564;DHT22;3823;53.586;10.040;2022-07-25T11:33:32;31.00;1.00
7564;DHT22;3823;53.586;10.040;2022-07-25T11:35:58;31.00;1.00
7564;DHT22;3823;53.586;10.040;2022-07-25T11:38:24;31.10;1.00
7564;DHT22;3823;53.586;10.040;2022-07-25T11:40:50;31.10;1.00
7564;DHT22;3823;53.586;10.040;2022-07-25T11:43:20;31.20;1.00
7564;DHT22;3823;53.586;10.040;2022-07-25T11:45:55;31.30;1.00
7564;DHT22;3823;53.586;10.040;2022-07-25T11:48:29;31.40;1.00
7564;DHT22;3823;53.586;10.040;2022-07-25T11:50:55;31.60;1.00
7564;DHT22;3823;53.586;10.040;2022-07-25T11:53:21;31.70;1.00
7564;DHT22;3823;53.586;10.040;2022-07-25T11:55:46;31.70;1.00
7564;DHT22;3823;53.586;10.040;2022-07-25T11:58:13;31.70;1.00
7564;DHT22;3823;53.586;10.040;2022-07-25T12:00:46;31.70;1.00
7564;DHT22;3823;53.586;10.040;2022-07-25T12:03:17;31.90;1.00
7564;DHT22;3823;53.586;10.040;2022-07-25T12:05:45;31.90;1.00
7564;DHT22;3823;53.586;10.040;2022-07-25T12:08:15;31.90;1.00
7564;DHT22;3823;53.586;10.040;2022-07-25T12:10:42;31.90;1.00
7564;DHT22;3823;53.586;10.040;2022-07-25T12:13:19;32.20;1.00
7564;DHT22;3823;53.586;10.040;2022-07-25T12:15:45;32.30;1.00
7564;DHT22;3823;53.586;10.040;2022-07-25T12:18:11;32.30;1.00
7564;DHT22;3823;53.586;10.040;2022-07-25T12:20:43;32.50;1.00
7564;DHT22;3823;53.586;10.040;2022-07-25T12:23:10;32.40;1.00
7564;DHT22;3823;53.586;10.040;2022-07-25T12:25:44;32.40;1.00
7564;DHT22;3823;53.586;10.040;2022-07-25T12:28:10;32.50;1.00
7564;DHT22;3823;53.586;10.040;2022-07-25T12:30:37;32.70;1.00
7564;DHT22;3823;53.586;10.040;2022-07-25T12:33:03;32.70;1.00
7564;DHT22;3823;53.586;10.040;2022-07-25T12:35:29;32.70;1.00
7564;DHT22;3823;53.586;10.040;2022-07-25T12:37:55;32.70;1.00
7564;DHT22;3823;53.586;10.040;2022-07-25T12:40:21;32.60;1.00
7564;DHT22;3823;53.586;10.040;2022-07-25T12:42:47;32.50;1.00
7564;DHT22;3823;53.586;10.040;2022-07-25T12:45:14;32.30;1.00
7564;DHT22;3823;53.586;10.040;2022-07-25T12:47:45;32.20;1.00
7564;DHT22;3823;53.586;10.040;2022-07-25T12:50:11;32.10;1.00
7564;DHT22;3823;53.586;10.040;2022-07-25T12:52:38;32.10;1.00
7564;DHT22;3823;53.586;10.040;2022-07-25T12:55:05;32.10;1.00
7564;DHT22;3823;53.586;10.040;2022-07-25T12:57:32;32.10;1.00
7564;DHT22;3823;53.586;10.040;2022-07-25T12:59:57;31.90;1.00
7564;DHT22;3823;53.586;10.040;2022-07-25T13:02:23;31.90;1.00
7564;DHT22;3823;53.586;10.040;2022-07-25T13:04:48;31.70;1.00
7564;DHT22;3823;53.586;10.040;2022-07-25T13:07:14;31.60;1.00
7564;DHT22;3823;53.586;10.040;2022-07-25T13:09:41;31.50;1.00
7564;DHT22;3823;53.586;10.040;2022-07-25T13:12:06;31.40;1.00
7564;DHT22;3823;53.586;10.040;2022-07-25T13:14:32;31.40;1.00
7564;DHT22;3823;53.586;10.040;2022-07-25T13:16:59;31.40;1.00
7564;DHT22;3823;53.586;10.040;2022-07-25T13:19:24;31.60;1.00
7564;DHT22;3823;53.586;10.040;2022-07-25T13:21:50;31.60;1.00
7564;DHT22;3823;53.586;10.040;2022-07-25T13:24:16;31.70;1.00
7564;DHT22;3823;53.586;10.040;2022-07-25T13:26:41;31.80;1.00
7564;DHT22;3823;53.586;10.040;2022-07-25T13:29:07;31.70;1.00
7564;DHT22;3823;53.586;10.040;2022-07-25T13:31:36;31.80;1.00
7564;DHT22;3823;53.586;10.040;2022-07-25T13:34:02;31.80;1.00
7564;DHT22;3823;53.586;10.040;2022-07-25T13:36:27;31.90;1.00
7564;DHT22;3823;53.586;10.040;2022-07-25T13:38:53;31.80;1.00
7564;DHT22;3823;53.586;10.040;2022-07-25T13:41:18;31.80;1.00
7564;DHT22;3823;53.586;10.040;2022-07-25T13:43:44;31.80;1.00
7564;DHT22;3823;53.586;10.040;2022-07-25T13:46:10;31.70;1.00
7564;DHT22;3823;53.586;10.040;2022-07-25T13:48:36;31.60;1.00
7564;DHT22;3823;53.586;10.040;2022-07-25T13:51:01;31.70;1.00
7564;DHT22;3823;53.586;10.040;2022-07-25T13:53:27;31.70;1.00
7564;DHT22;3823;53.586;10.040;2022-07-25T13:55:53;31.70;1.00
7564;DHT22;3823;53.586;10.040;2022-07-25T13:58:20;31.70;1.00
7564;DHT22;3823;53.586;10.040;2022-07-25T14:00:45;31.70;1.00
7564;DHT22;3823;53.586;10.040;2022-07-25T14:03:11;31.60;1.00
7564;DHT22;3823;53.586;10.040;2022-07-25T14:05:40;31.60;1.00
7564;DHT22;3823;53.586;10.040;2022-07-25T14:08:06;31.60;1.00
7564;DHT22;3823;53.586;10.040;2022-07-25T14:10:32;31.60;1.00
7564;DHT22;3823;53.586;10.040;2022-07-25T14:12:58;31.50;1.00
7564;DHT22;3823;53.586;10.040;2022-07-25T14:15:23;31.50;1.00
7564;DHT22;3823;53.586;10.040;2022-07-25T14:17:49;31.50;1.00
7564;DHT22;3823;53.586;10.040;2022-07-25T14:20:14;31.40;1.00
7564;DHT22;3823;53.586;10.040;2022-07-25T14:22:40;31.40;1.00
7564;DHT22;3823;53.586;10.040;2022-07-25T14:25:08;31.10;1.00
7564;DHT22;3823;53.586;10.040;2022-07-25T14:27:36;30.60;1.90
7564;DHT22;3823;53.586;10.040;2022-07-25T14:30:03;30.20;2.80
7564;DHT22;3823;53.586;10.040;2022-07-25T14:32:29;29.90;3.30
7564;DHT22;3823;53.586;10.040;2022-07-25T14:34:55;29.60;3.90
7564;DHT22;3823;53.586;10.040;2022-07-25T14:37:20;29.40;4.20
7564;DHT22;3823;53.586;10.040;2022-07-25T14:39:48;29.00;4.70
7564;DHT22;3823;53.586;10.040;2022-07-25T14:42:14;28.80;5.20
7564;DHT22;3823;53.586;10.040;2022-07-25T14:44:40;28.70;4.70
7564;DHT22;3823;53.586;10.040;2022-07-25T14:47:06;28.50;4.70
7564;DHT22;3823;53.586;10.040;2022-07-25T14:49:32;28.30;4.90
7564;DHT22;3823;53.586;10.040;2022-07-25T14:51:58;28.20;5.30
7564;DHT22;3823;53.586;10.040;2022-07-25T14:54:24;28.10;5.50
7564;DHT22;3823;53.586;10.040;2022-07-25T14:56:53;28.10;5.50
7564;DHT22;3823;53.586;10.040;2022-07-25T14:59:18;28.00;6.00
7564;DHT22;3823;53.586;10.040;2022-07-25T15:01:44;27.90;6.10
7564;DHT22;3823;53.586;10.040;2022-07-25T15:04:10;27.80;6.10
7564;DHT22;3823;53.586;10.040;2022-07-25T15:06:36;27.70;6.30
7564;DHT22;3823;53.586;10.040;2022-07-25T15:09:02;27.50;6.30
7564;DHT22;3823;53.586;10.040;2022-07-25T15:11:28;27.20;6.70
7564;DHT22;3823;53.586;10.040;2022-07-25T15:13:53;26.90;7.70
7564;DHT22;3823;53.586;10.040;2022-07-25T15:16:19;26.80;8.50
7564;DHT22;3823;53.586;10.040;2022-07-25T15:18:44;26.60;9.00
7564;DHT22;3823;53.586;10.040;2022-07-25T15:21:10;26.60;9.60
7564;DHT22;3823;53.586;10.040;2022-07-25T15:23:36;26.60;9.30
7564;DHT22;3823;53.586;10.040;2022-07-25T15:26:02;26.50;9.40
7564;DHT22;3823;53.586;10.040;2022-07-25T15:28:28;26.30;9.70
7564;DHT22;3823;53.586;10.040;2022-07-25T15:30:54;26.20;10.20
7564;DHT22;3823;53.586;10.040;2022-07-25T15:33:20;26.00;10.70
7564;DHT22;3823;53.586;10.040;2022-07-25T15:35:46;25.80;11.30
7564;DHT22;3823;53.586;10.040;2022-07-25T15:38:13;25.70;11.80
7564;DHT22;3823;53.586;10.040;2022-07-25T15:40:40;25.60;12.30
7564;DHT22;3823;53.586;10.040;2022-07-25T15:43:06;25.50;13.90
7564;DHT22;3823;53.586;10.040;2022-07-25T15:45:36;25.50;17.40
7564;DHT22;3823;53.586;10.040;2022-07-25T15:48:05;25.40;17.90
7564;DHT22;3823;53.586;10.040;2022-07-25T15:50:32;25.20;21.10
7564;DHT22;3823;53.586;10.040;2022-07-25T15:52:58;24.80;22.80
7564;DHT22;3823;53.586;10.040;2022-07-25T15:55:23;24.50;25.50
7564;DHT22;3823;53.586;10.040;2022-07-25T15:57:53;24.20;30.80
7564;DHT22;3823;53.586;10.040;2022-07-25T16:00:19;24.10;39.50